sensor_id;sensor_type;location;lat;lon;timestamp;temperature;humidity
68139;DHT22;54940;50.842;4.410;2023-07-22T00:02:19;17.70;99.90
68139;DHT22;54940;50.842;4.410;2023-07-22T00:04:46;17.70;99.90
68139;DHT22;54940;50.842;4.410;2023-07-22T00:07:11;17.70;99.90
68139;DHT22;54940;50.842;4.410;2023-07-22T00:09:37;17.60;99.90
68139;DHT22;54940;50.842;4.410;2023-07-22T00:12:04;17.50;99.90
68139;DHT22;54940;50.842;4.410;2023-07-22T00:14:31;17.50;99.90
68139;DHT22;54940;50.842;4.410;2023-07-22T00:16:56;17.50;99.90
68139;DHT22;54940;50.842;4.410;2023-07-22T00:19:22;17.50;99.90
68139;DHT22;54940;50.842;4.410;2023-07-22T00:21:49;17.40;99.90
68139;DHT22;54940;50.842;4.410;2023-07-22T00:24:14;17.40;99.90
68139;DHT22;54940;50.842;4.410;2023-07-22T00:26:41;17.40;99.90
68139;DHT22;54940;50.842;4.410;2023-07-22T00:29:08;17.30;99.90
68139;DHT22;54940;50.842;4.410;2023-07-22T00:31:33;17.20;99.90
68139;DHT22;54940;50.842;4.410;2023-07-22T00:33:59;17.30;99.90
68139;DHT22;54940;50.842;4.410;2023-07-22T00:36:25;17.30;99.90
68139;DHT22;54940;50.842;4.410;2023-07-22T00:38:51;17.30;99.90
68139;DHT22;54940;50.842;4.410;2023-07-22T00:41:18;17.20;99.90
68139;DHT22;54940;50.842;4.410;2023-07-22T00:43:44;17.20;99.90
68139;DHT22;54940;50.842;4.410;2023-07-22T00:46:09;17.20;99.90
68139;DHT22;54940;50.842;4.410;2023-07-22T00:48:35;17.10;99.90
68139;DHT22;54940;50.842;4.410;2023-07-22T00:51:01;17.10;99.90
68139;DHT22;54940;50.842;4.410;2023-07-22T00:53:27;17.00;99.90
68139;DHT22;54940;50.842;4.410;2023-07-22T00:55:54;17.10;99.90
68139;DHT22;54940;50.842;4.410;2023-07-22T00:58:20;17.20;99.90
68139;DHT22;54940;50.842;4.410;2023-07-22T01:00:46;17.00;99.90
68139;DHT22;54940;50.842;4.410;2023-07-22T01:03:12;16.90;99.90
68139;DHT22;54940;50.842;4.410;2023-07-22T01:05:39;16.80;99.90
68139;DHT22;54940;50.842;4.410;2023-07-22T01:08:06;16.90;99.90
68139;DHT22;54940;50.842;4.410;2023-07-22T01:10:32;16.90;99.90
68139;DHT22;54940;50.842;4.410;2023-07-22T01:12:58;16.90;99.90
68139;DHT22;54940;50.842;4.410;2023-07-22T01:15:25;16.90;99.90
68139;DHT22;54940;50.842;4.410;2023-07-22T01:17:53;16.80;99.90
68139;DHT22;54940;50.842;4.410;2023-07-22T01:20:20;16.80;99.90
68139;DHT22;54940;50.842;4.410;2023-07-22T01:22:52;16.70;99.90
68139;DHT22;54940;50.842;4.410;2023-07-22T01:25:20;16.60;99.90
68139;DHT22;54940;50.842;4.410;2023-07-22T01:27:50;16.50;99.90
68139;DHT22;54940;50.842;4.410;2023-07-22T01:30:16;16.50;99.90
68139;DHT22;54940;50.842;4.410;2023-07-22T01:32:42;16.60;99.90
68139;DHT22;54940;50.842;4.410;2023-07-22T01:35:08;16.60;99.90
68139;DHT22;54940;50.842;4.410;2023-07-22T01:37:35;16.50;99.90
68139;DHT22;54940;50.842;4.410;2023-07-22T01:40:01;16.50;99.90
68139;DHT22;54940;50.842;4.410;2023-07-22T01:42:36;16.50;99.90
68139;DHT22;54940;50.842;4.410;2023-07-22T01:45:08;16.40;99.90
68139;DHT22;54940;50.842;4.410;2023-07-22T01:47:34;16.30;99.90
68139;DHT22;54940;50.842;4.410;2023-07-22T01:50:02;16.30;99.90
68139;DHT22;54940;50.842;4.410;2023-07-22T01:52:28;16.30;99.90
68139;DHT22;54940;50.842;4.410;2023-07-22T01:54:53;16.40;99.90
68139;DHT22;54940;50.842;4.410;2023-07-22T01:57:19;16.50;99.90
68139;DHT22;54940;50.842;4.410;2023-07-22T01:59:44;16.40;99.90
68139;DHT22;54940;50.842;4.410;2023-07-22T02:02:10;16.50;99.90
68139;DHT22;54940;50.842;4.410;2023-07-22T02:04:36;16.40;99.90
68139;DHT22;54940;50.842;4.410;2023-07-22T02:07:01;16.30;99.90
68139;DHT22;54940;50.842;4.410;2023-07-22T02:09:27;16.30;99.90
68139;DHT22;54940;50.842;4.410;2023-07-22T02:11:52;16.30;99.90
68139;DHT22;54940;50.842;4.410;2023-07-22T02:14:19;16.30;99.90
68139;DHT22;54940;50.842;4.410;2023-07-22T02:16:44;16.20;99.90
68139;DHT22;54940;50.842;4.410;2023-07-22T02:19:10;16.20;99.90
68139;DHT22;54940;50.842;4.410;2023-07-22T02:21:36;16.10;99.90
68139;DHT22;54940;50.842;4.410;2023-07-22T02:24:02;16.00;99.90
68139;DHT22;54940;50.842;4.410;2023-07-22T02:26:27;16.00;99.90
68139;DHT22;54940;50.842;4.410;2023-07-22T02:28:53;16.00;99.90
68139;DHT22;54940;50.842;4.410;2023-07-22T02:31:20;15.90;99.90
68139;DHT22;54940;50.842;4.410;2023-07-22T02:33:47;15.80;99.90
68139;DHT22;54940;50.842;4.410;2023-07-22T02:36:13;15.90;99.90
68139;DHT22;54940;50.842;4.410;2023-07-22T02:38:38;15.90;99.90
68139;DHT22;54940;50.842;4.410;2023-07-22T02:41:05;15.90;99.90
68139;DHT22;54940;50.842;4.410;2023-07-22T02:43:33;15.90;99.90
68139;DHT22;54940;50.842;4.410;2023-07-22T02:46:03;16.00;99.90
68139;DHT22;54940;50.842;4.410;2023-07-22T02:48:30;15.90;99.90
68139;DHT22;54940;50.842;4.410;2023-07-22T02:51:07;15.90;99.90
68139;DHT22;54940;50.842;4.410;2023-07-22T02:53:36;15.90;99.90
68139;DHT22;54940;50.842;4.410;2023-07-22T02:56:02;15.80;99.90
68139;DHT22;54940;50.842;4.410;2023-07-22T02:58:29;15.80;99.90
68139;DHT22;54940;50.842;4.410;2023-07-22T03:00:55;15.70;99.90
68139;DHT22;54940;50.842;4.410;2023-07-22T03:03:23;15.80;99.90
68139;DHT22;54940;50.842;4.410;2023-07-22T03:05:51;15.80;99.90
68139;DHT22;54940;50.842;4.410;2023-07-22T03:08:18;15.60;99.90
68139;DHT22;54940;50.842;4.410;2023-07-22T03:10:44;15.60;99.90
68139;DHT22;54940;50.842;4.410;2023-07-22T03:13:14;15.70;99.90
68139;DHT22;54940;50.842;4.410;2023-07-22T03:15:40;15.70;99.90
68139;DHT22;54940;50.842;4.410;2023-07-22T03:18:06;15.70;99.90
68139;DHT22;54940;50.842;4.410;2023-07-22T03:20:34;15.70;99.90
68139;DHT22;54940;50.842;4.410;2023-07-22T03:23:00;15.60;99.90
68139;DHT22;54940;50.842;4.410;2023-07-22T03:25:26;15.60;99.90
68139;DHT22;54940;50.842;4.410;2023-07-22T03:27:53;15.60;99.90
68139;DHT22;54940;50.842;4.410;2023-07-22T03:30:22;15.50;99.90
68139;DHT22;54940;50.842;4.410;2023-07-22T03:32:48;15.50;99.90
68139;DHT22;54940;50.842;4.410;2023-07-22T03:35:16;15.40;99.90
68139;DHT22;54940;50.842;4.410;2023-07-22T03:37:42;15.40;99.90
68139;DHT22;54940;50.842;4.410;2023-07-22T03:40:09;15.40;99.90
68139;DHT22;54940;50.842;4.410;2023-07-22T03:42:52;15.40;99.90
68139;DHT22;54940;50.842;4.410;2023-07-22T03:45:21;15.50;99.90
68139;DHT22;54940;50.842;4.410;2023-07-22T03:47:52;15.50;99.90
68139;DHT22;54940;50.842;4.410;2023-07-22T03:50:18;15.50;99.90
68139;DHT22;54940;50.842;4.410;2023-07-22T03:52:44;15.50;99.90
68139;DHT22;54940;50.842;4.410;2023-07-22T03:55:10;15.40;99.90
68139;DHT22;54940;50.842;4.410;2023-07-22T03:57:36;15.50;99.90
68139;DHT22;54940;50.842;4.410;2023-07-22T04:00:04;15.40;99.90
68139;DHT22;54940;50.842;4.410;2023-07-22T04:02:30;15.50;99.90
68139;DHT22;54940;50.842;4.410;2023-07-22T04:04:56;15.50;99.90
68139;DHT22;54940;50.842;4.410;2023-07-22T04:07:22;15.50;99.90
68139;DHT22;54940;50.842;4.410;2023-07-22T04:09:48;15.40;99.90
68139;DHT22;54940;50.842;4.410;2023-07-22T04:12:14;15.40;99.90
68139;DHT22;54940;50.842;4.410;2023-07-22T04:14:42;15.40;99.90
68139;DHT22;54940;50.842;4.410;2023-07-22T04:17:08;15.40;99.90
68139;DHT22;54940;50.842;4.410;2023-07-22T04:19:34;15.40;99.90
68139;DHT22;54940;50.842;4.410;2023-07-22T04:21:59;15.40;99.90
68139;DHT22;54940;50.842;4.410;2023-07-22T04:24:32;15.50;99.90
68139;DHT22;54940;50.842;4.410;2023-07-22T04:26:58;15.50;99.90
68139;DHT22;54940;50.842;4.410;2023-07-22T04:29:24;15.50;99.90
68139;DHT22;54940;50.842;4.410;2023-07-22T04:31:49;15.60;99.90
68139;DHT22;54940;50.842;4.410;2023-07-22T04:34:15;15.70;99.90
68139;DHT22;54940;50.842;4.410;2023-07-22T04:36:40;15.60;99.90
68139;DHT22;54940;50.842;4.410;2023-07-22T04:39:06;15.60;99.90
68139;DHT22;54940;50.842;4.410;2023-07-22T04:41:33;15.60;99.90
68139;DHT22;54940;50.842;4.410;2023-07-22T04:43:58;15.60;99.90
68139;DHT22;54940;50.842;4.410;2023-07-22T04:46:26;15.60;99.90
68139;DHT22;54940;50.842;4.410;2023-07-22T04:48:55;15.70;99.90
68139;DHT22;54940;50.842;4.410;2023-07-22T04:51:21;15.70;99.90
68139;DHT22;54940;50.842;4.410;2023-07-22T04:53:47;15.70;99.90
68139;DHT22;54940;50.842;4.410;2023-07-22T04:56:17;15.60;99.90
68139;DHT22;54940;50.842;4.410;2023-07-22T04:58:42;15.50;99.90
68139;DHT22;54940;50.842;4.410;2023-07-22T05:01:09;15.50;99.90
68139;DHT22;54940;50.842;4.410;2023-07-22T05:03:35;15.50;99.90
68139;DHT22;54940;50.842;4.410;2023-07-22T05:06:03;15.50;99.90
68139;DHT22;54940;50.842;4.410;2023-07-22T05:08:28;15.50;99.90
68139;DHT22;54940;50.842;4.410;2023-07-22T05:10:54;15.40;99.90
68139;DHT22;54940;50.842;4.410;2023-07-22T05:13:20;15.40;99.90
68139;DHT22;54940;50.842;4.410;2023-07-22T05:15:45;15.50;99.90
68139;DHT22;54940;50.842;4.410;2023-07-22T05:18:11;15.50;99.90
68139;DHT22;54940;50.842;4.410;2023-07-22T05:20:38;15.40;99.90
68139;DHT22;54940;50.842;4.410;2023-07-22T05:23:07;15.40;99.90
68139;DHT22;54940;50.842;4.410;2023-07-22T05:25:32;15.50;99.90
68139;DHT22;54940;50.842;4.410;2023-07-22T05:27:58;15.60;99.90
68139;DHT22;54940;50.842;4.410;2023-07-22T05:30:24;15.70;99.90
68139;DHT22;54940;50.842;4.410;2023-07-22T05:32:52;15.70;99.90
68139;DHT22;54940;50.842;4.410;2023-07-22T05:35:18;16.00;99.90
68139;DHT22;54940;50.842;4.410;2023-07-22T05:37:44;16.30;99.90
68139;DHT22;54940;50.842;4.410;2023-07-22T05:40:10;16.80;99.90
68139;DHT22;54940;50.842;4.410;2023-07-22T05:42:36;17.00;99.90
68139;DHT22;54940;50.842;4.410;2023-07-22T05:45:02;17.20;99.90
68139;DHT22;54940;50.842;4.410;2023-07-22T05:47:28;17.40;99.90
68139;DHT22;54940;50.842;4.410;2023-07-22T05:49:56;17.50;99.90
68139;DHT22;54940;50.842;4.410;2023-07-22T05:52:24;17.50;99.90
68139;DHT22;54940;50.842;4.410;2023-07-22T05:54:50;17.20;99.90
68139;DHT22;54940;50.842;4.410;2023-07-22T05:57:15;17.10;99.90
68139;DHT22;54940;50.842;4.410;2023-07-22T05:59:41;17.10;99.90
68139;DHT22;54940;50.842;4.410;2023-07-22T06:02:08;17.10;99.90
68139;DHT22;54940;50.842;4.410;2023-07-22T06:04:35;17.20;99.90
68139;DHT22;54940;50.842;4.410;2023-07-22T06:07:01;17.20;99.90
68139;DHT22;54940;50.842;4.410;2023-07-22T06:09:26;17.30;99.90
68139;DHT22;54940;50.842;4.410;2023-07-22T06:11:52;17.50;99.90
68139;DHT22;54940;50.842;4.410;2023-07-22T06:14:20;17.60;99.90
68139;DHT22;54940;50.842;4.410;2023-07-22T06:16:45;17.40;99.90
68139;DHT22;54940;50.842;4.410;2023-07-22T06:19:11;17.30;99.90
68139;DHT22;54940;50.842;4.410;2023-07-22T06:21:37;17.20;99.90
68139;DHT22;54940;50.842;4.410;2023-07-22T06:24:02;17.00;99.90
68139;DHT22;54940;50.842;4.410;2023-07-22T06:26:28;17.00;99.90
68139;DHT22;54940;50.842;4.410;2023-07-22T06:28:54;17.00;99.90
68139;DHT22;54940;50.842;4.410;2023-07-22T06:31:20;17.10;99.90
68139;DHT22;54940;50.842;4.410;2023-07-22T06:33:45;17.20;99.90
68139;DHT22;54940;50.842;4.410;2023-07-22T06:36:11;17.10;99.90
68139;DHT22;54940;50.842;4.410;2023-07-22T06:38:37;17.00;99.90
68139;DHT22;54940;50.842;4.410;2023-07-22T06:41:03;16.90;99.90
68139;DHT22;54940;50.842;4.410;2023-07-22T06:43:28;16.90;99.90
68139;DHT22;54940;50.842;4.410;2023-07-22T06:45:54;17.10;99.90
68139;DHT22;54940;50.842;4.410;2023-07-22T06:48:22;17.10;99.90
68139;DHT22;54940;50.842;4.410;2023-07-22T06:50:48;17.20;99.90
68139;DHT22;54940;50.842;4.410;2023-07-22T06:53:14;17.10;99.90
68139;DHT22;54940;50.842;4.410;2023-07-22T06:55:47;17.20;99.90
68139;DHT22;54940;50.842;4.410;2023-07-22T06:58:13;17.00;99.90
68139;DHT22;54940;50.842;4.410;2023-07-22T07:00:38;16.90;99.90
68139;DHT22;54940;50.842;4.410;2023-07-22T07:03:04;17.00;99.90
68139;DHT22;54940;50.842;4.410;2023-07-22T07:05:30;17.10;99.90
68139;DHT22;54940;50.842;4.410;2023-07-22T07:07:55;17.20;99.90
68139;DHT22;54940;50.842;4.410;2023-07-22T07:10:23;17.20;99.90
68139;DHT22;54940;50.842;4.410;2023-07-22T07:12:51;17.20;99.90
68139;DHT22;54940;50.842;4.410;2023-07-22T07:15:17;17.20;99.90
68139;DHT22;54940;50.842;4.410;2023-07-22T07:17:42;17.40;99.90
68139;DHT22;54940;50.842;4.410;2023-07-22T07:20:09;17.70;99.90
68139;DHT22;54940;50.842;4.410;2023-07-22T07:22:34;18.10;99.90
68139;DHT22;54940;50.842;4.410;2023-07-22T07:25:00;18.50;99.90
68139;DHT22;54940;50.842;4.410;2023-07-22T07:27:26;18.80;99.90
68139;DHT22;54940;50.842;4.410;2023-07-22T07:29:52;19.10;99.90
68139;DHT22;54940;50.842;4.410;2023-07-22T07:32:18;19.30;99.90
68139;DHT22;54940;50.842;4.410;2023-07-22T07:34:43;19.10;99.90
68139;DHT22;54940;50.842;4.410;2023-07-22T07:37:09;19.00;99.90
68139;DHT22;54940;50.842;4.410;2023-07-22T07:39:34;18.90;99.90
68139;DHT22;54940;50.842;4.410;2023-07-22T07:42:00;18.80;99.90
68139;DHT22;54940;50.842;4.410;2023-07-22T07:44:26;18.80;99.90
68139;DHT22;54940;50.842;4.410;2023-07-22T07:46:51;18.80;99.90
68139;DHT22;54940;50.842;4.410;2023-07-22T07:49:17;18.70;99.90
68139;DHT22;54940;50.842;4.410;2023-07-22T07:51:47;18.80;99.90
68139;DHT22;54940;50.842;4.410;2023-07-22T07:54:15;18.80;99.90
68139;DHT22;54940;50.842;4.410;2023-07-22T07:56:41;18.80;99.90
68139;DHT22;54940;50.842;4.410;2023-07-22T07:59:07;18.80;99.90
68139;DHT22;54940;50.842;4.410;2023-07-22T08:01:34;18.90;99.90
68139;DHT22;54940;50.842;4.410;2023-07-22T08:04:01;18.90;99.90
68139;DHT22;54940;50.842;4.410;2023-07-22T08:06:29;18.90;99.90
68139;DHT22;54940;50.842;4.410;2023-07-22T08:08:54;18.70;99.90
68139;DHT22;54940;50.842;4.410;2023-07-22T08:11:20;18.60;99.90
68139;DHT22;54940;50.842;4.410;2023-07-22T08:13:45;18.70;99.90
68139;DHT22;54940;50.842;4.410;2023-07-22T08:16:13;18.60;99.90
68139;DHT22;54940;50.842;4.410;2023-07-22T08:18:39;18.50;99.90
68139;DHT22;54940;50.842;4.410;2023-07-22T08:21:06;18.60;99.90
68139;DHT22;54940;50.842;4.410;2023-07-22T08:23:33;18.70;99.90
68139;DHT22;54940;50.842;4.410;2023-07-22T08:25:58;18.90;99.90
68139;DHT22;54940;50.842;4.410;2023-07-22T08:28:26;18.90;99.90
68139;DHT22;54940;50.842;4.410;2023-07-22T08:30:56;19.00;99.90
68139;DHT22;54940;50.842;4.410;2023-07-22T08:33:23;19.40;99.90
68139;DHT22;54940;50.842;4.410;2023-07-22T08:35:49;19.60;99.90
68139;DHT22;54940;50.842;4.410;2023-07-22T08:38:15;19.70;99.90
68139;DHT22;54940;50.842;4.410;2023-07-22T08:40:43;19.60;99.90
68139;DHT22;54940;50.842;4.410;2023-07-22T08:43:10;19.50;99.90
68139;DHT22;54940;50.842;4.410;2023-07-22T08:45:38;19.50;99.90
68139;DHT22;54940;50.842;4.410;2023-07-22T08:48:06;19.40;99.90
68139;DHT22;54940;50.842;4.410;2023-07-22T08:50:54;19.60;99.90
68139;DHT22;54940;50.842;4.410;2023-07-22T08:53:21;19.90;99.90
68139;DHT22;54940;50.842;4.410;2023-07-22T08:55:47;19.70;99.90
68139;DHT22;54940;50.842;4.410;2023-07-22T08:58:16;19.70;99.90
68139;DHT22;54940;50.842;4.410;2023-07-22T09:00:42;19.90;99.90
68139;DHT22;54940;50.842;4.410;2023-07-22T09:03:09;20.00;99.90
68139;DHT22;54940;50.842;4.410;2023-07-22T09:05:36;20.10;99.90
68139;DHT22;54940;50.842;4.410;2023-07-22T09:08:04;20.30;99.90
68139;DHT22;54940;50.842;4.410;2023-07-22T09:10:30;20.60;99.90
68139;DHT22;54940;50.842;4.410;2023-07-22T09:12:57;20.70;99.90
68139;DHT22;54940;50.842;4.410;2023-07-22T09:15:24;21.00;99.90
68139;DHT22;54940;50.842;4.410;2023-07-22T09:17:53;21.00;99.90
68139;DHT22;54940;50.842;4.410;2023-07-22T09:20:20;20.70;99.90
68139;DHT22;54940;50.842;4.410;2023-07-22T09:22:47;20.70;99.90
68139;DHT22;54940;50.842;4.410;2023-07-22T09:25:15;20.90;99.90
68139;DHT22;54940;50.842;4.410;2023-07-22T09:27:41;21.00;99.90
68139;DHT22;54940;50.842;4.410;2023-07-22T09:32:50;21.30;99.90
68139;DHT22;54940;50.842;4.410;2023-07-22T09:35:17;21.70;99.90
68139;DHT22;54940;50.842;4.410;2023-07-22T09:37:48;21.70;99.90
68139;DHT22;54940;50.842;4.410;2023-07-22T09:40:24;21.90;99.90
68139;DHT22;54940;50.842;4.410;2023-07-22T09:42:54;22.00;99.90
68139;DHT22;54940;50.842;4.410;2023-07-22T09:45:23;22.00;99.90
68139;DHT22;54940;50.842;4.410;2023-07-22T09:47:51;22.10;99.90
68139;DHT22;54940;50.842;4.410;2023-07-22T09:50:19;22.10;99.90
68139;DHT22;54940;50.842;4.410;2023-07-22T09:52:52;21.90;99.90
68139;DHT22;54940;50.842;4.410;2023-07-22T09:55:20;21.30;99.90
68139;DHT22;54940;50.842;4.410;2023-07-22T09:57:49;21.40;99.90
68139;DHT22;54940;50.842;4.410;2023-07-22T10:00:16;21.70;99.90
68139;DHT22;54940;50.842;4.410;2023-07-22T10:02:46;22.00;99.90
68139;DHT22;54940;50.842;4.410;2023-07-22T10:05:17;22.30;99.90
68139;DHT22;54940;50.842;4.410;2023-07-22T10:07:47;22.70;99.90
68139;DHT22;54940;50.842;4.410;2023-07-22T10:10:16;23.10;99.90
68139;DHT22;54940;50.842;4.410;2023-07-22T10:12:42;23.20;99.90
68139;DHT22;54940;50.842;4.410;2023-07-22T10:15:10;23.30;99.90
68139;DHT22;54940;50.842;4.410;2023-07-22T10:17:36;23.20;99.90
68139;DHT22;54940;50.842;4.410;2023-07-22T10:20:02;23.10;99.90
68139;DHT22;54940;50.842;4.410;2023-07-22T10:22:37;23.20;99.90
68139;DHT22;54940;50.842;4.410;2023-07-22T10:25:07;23.10;99.90
68139;DHT22;54940;50.842;4.410;2023-07-22T10:27:35;23.00;99.90
68139;DHT22;54940;50.842;4.410;2023-07-22T10:30:02;23.20;99.90
68139;DHT22;54940;50.842;4.410;2023-07-22T10:32:35;23.20;99.90
68139;DHT22;54940;50.842;4.410;2023-07-22T10:35:04;23.60;99.90
68139;DHT22;54940;50.842;4.410;2023-07-22T10:37:34;23.80;99.90
68139;DHT22;54940;50.842;4.410;2023-07-22T10:40:29;24.00;99.90
68139;DHT22;54940;50.842;4.410;2023-07-22T10:43:05;23.90;99.90
68139;DHT22;54940;50.842;4.410;2023-07-22T10:45:33;23.50;99.90
68139;DHT22;54940;50.842;4.410;2023-07-22T10:48:07;23.50;99.90
68139;DHT22;54940;50.842;4.410;2023-07-22T10:50:43;23.50;99.90
68139;DHT22;54940;50.842;4.410;2023-07-22T11:14:35;23.90;99.90
68139;DHT22;54940;50.842;4.410;2023-07-22T11:17:04;23.90;99.90
68139;DHT22;54940;50.842;4.410;2023-07-22T11:19:30;24.10;99.90
68139;DHT22;54940;50.842;4.410;2023-07-22T11:21:56;24.40;99.90
68139;DHT22;54940;50.842;4.410;2023-07-22T11:24:23;24.50;99.90
68139;DHT22;54940;50.842;4.410;2023-07-22T11:26:50;24.50;99.90
68139;DHT22;54940;50.842;4.410;2023-07-22T11:29:17;24.00;99.90
68139;DHT22;54940;50.842;4.410;2023-07-22T11:31:44;23.80;99.90
68139;DHT22;54940;50.842;4.410;2023-07-22T11:34:18;23.80;99.90
68139;DHT22;54940;50.842;4.410;2023-07-22T11:36:45;23.50;99.90
68139;DHT22;54940;50.842;4.410;2023-07-22T11:39:14;24.00;99.90
68139;DHT22;54940;50.842;4.410;2023-07-22T11:41:40;24.10;99.90
68139;DHT22;54940;50.842;4.410;2023-07-22T11:44:10;23.80;99.90
68139;DHT22;54940;50.842;4.410;2023-07-22T11:46:58;24.00;99.90
68139;DHT22;54940;50.842;4.410;2023-07-22T11:51:57;24.20;99.90
68139;DHT22;54940;50.842;4.410;2023-07-22T11:54:23;24.30;99.90
68139;DHT22;54940;50.842;4.410;2023-07-22T11:56:49;24.10;99.90
68139;DHT22;54940;50.842;4.410;2023-07-22T11:59:15;23.90;99.90
68139;DHT22;54940;50.842;4.410;2023-07-22T12:01:44;23.60;99.90
68139;DHT22;54940;50.842;4.410;2023-07-22T12:04:13;23.50;99.90
68139;DHT22;54940;50.842;4.410;2023-07-22T12:06:40;23.80;99.90
68139;DHT22;54940;50.842;4.410;2023-07-22T12:09:08;23.60;99.90
68139;DHT22;54940;50.842;4.410;2023-07-22T12:11:35;23.50;99.90
68139;DHT22;54940;50.842;4.410;2023-07-22T12:14:12;23.70;99.90
68139;DHT22;54940;50.842;4.410;2023-07-22T12:16:41;23.70;99.90
68139;DHT22;54940;50.842;4.410;2023-07-22T12:19:08;23.90;99.90
68139;DHT22;54940;50.842;4.410;2023-07-22T12:21:34;24.00;99.90
68139;DHT22;54940;50.842;4.410;2023-07-22T12:24:01;24.30;99.90
68139;DHT22;54940;50.842;4.410;2023-07-22T12:26:27;23.90;99.90
68139;DHT22;54940;50.842;4.410;2023-07-22T12:28:53;23.90;99.90
68139;DHT22;54940;50.842;4.410;2023-07-22T12:31:18;23.80;99.90
68139;DHT22;54940;50.842;4.410;2023-07-22T12:33:44;23.40;99.30
68139;DHT22;54940;50.842;4.410;2023-07-22T12:36:10;23.40;99.10
68139;DHT22;54940;50.842;4.410;2023-07-22T12:38:36;23.60;99.90
68139;DHT22;54940;50.842;4.410;2023-07-22T12:41:04;24.00;99.90
68139;DHT22;54940;50.842;4.410;2023-07-22T12:43:30;24.20;99.90
68139;DHT22;54940;50.842;4.410;2023-07-22T12:45:56;24.40;99.10
68139;DHT22;54940;50.842;4.410;2023-07-22T12:48:22;24.40;99.30
68139;DHT22;54940;50.842;4.410;2023-07-22T12:50:50;24.40;97.40
68139;DHT22;54940;50.842;4.410;2023-07-22T12:53:15;24.30;97.50
68139;DHT22;54940;50.842;4.410;2023-07-22T12:55:41;24.30;99.90
68139;DHT22;54940;50.842;4.410;2023-07-22T12:58:07;24.40;97.10
68139;DHT22;54940;50.842;4.410;2023-07-22T13:00:33;24.20;99.20
68139;DHT22;54940;50.842;4.410;2023-07-22T13:02:59;24.20;97.30
68139;DHT22;54940;50.842;4.410;2023-07-22T13:05:24;23.80;96.60
68139;DHT22;54940;50.842;4.410;2023-07-22T13:07:50;23.40;99.50
68139;DHT22;54940;50.842;4.410;2023-07-22T13:10:16;23.40;99.90
68139;DHT22;54940;50.842;4.410;2023-07-22T13:12:45;23.10;99.90
68139;DHT22;54940;50.842;4.410;2023-07-22T13:15:11;23.10;99.90
68139;DHT22;54940;50.842;4.410;2023-07-22T13:17:37;23.10;98.40
68139;DHT22;54940;50.842;4.410;2023-07-22T13:20:04;23.00;99.80
68139;DHT22;54940;50.842;4.410;2023-07-22T13:22:32;23.10;99.90
68139;DHT22;54940;50.842;4.410;2023-07-22T13:24:58;23.00;99.90
68139;DHT22;54940;50.842;4.410;2023-07-22T13:27:23;23.00;99.30
68139;DHT22;54940;50.842;4.410;2023-07-22T13:29:49;23.20;99.60
68139;DHT22;54940;50.842;4.410;2023-07-22T13:32:15;23.20;99.90
68139;DHT22;54940;50.842;4.410;2023-07-22T13:34:40;23.30;99.60
68139;DHT22;54940;50.842;4.410;2023-07-22T13:37:06;23.30;99.80
68139;DHT22;54940;50.842;4.410;2023-07-22T13:39:34;23.30;99.30
68139;DHT22;54940;50.842;4.410;2023-07-22T13:42:02;23.40;99.90
68139;DHT22;54940;50.842;4.410;2023-07-22T13:44:30;23.40;99.60
68139;DHT22;54940;50.842;4.410;2023-07-22T13:46:56;23.20;99.60
68139;DHT22;54940;50.842;4.410;2023-07-22T13:49:22;23.00;99.90
68139;DHT22;54940;50.842;4.410;2023-07-22T13:51:47;22.80;99.90
68139;DHT22;54940;50.842;4.410;2023-07-22T13:54:13;22.90;99.90
68139;DHT22;54940;50.842;4.410;2023-07-22T13:56:38;22.60;99.90
68139;DHT22;54940;50.842;4.410;2023-07-22T13:59:04;22.30;99.90
68139;DHT22;54940;50.842;4.410;2023-07-22T14:01:30;22.10;99.90
68139;DHT22;54940;50.842;4.410;2023-07-22T14:03:56;22.10;99.90
68139;DHT22;54940;50.842;4.410;2023-07-22T14:06:22;21.80;99.90
68139;DHT22;54940;50.842;4.410;2023-07-22T14:08:48;21.80;99.90
68139;DHT22;54940;50.842;4.410;2023-07-22T14:11:14;21.60;99.90
68139;DHT22;54940;50.842;4.410;2023-07-22T14:13:40;21.60;99.90
68139;DHT22;54940;50.842;4.410;2023-07-22T14:16:05;21.70;99.90
68139;DHT22;54940;50.842;4.410;2023-07-22T14:18:31;21.70;99.90
68139;DHT22;54940;50.842;4.410;2023-07-22T14:20:56;21.50;99.90
68139;DHT22;54940;50.842;4.410;2023-07-22T14:23:22;21.50;99.90
68139;DHT22;54940;50.842;4.410;2023-07-22T14:25:48;21.30;99.90
68139;DHT22;54940;50.842;4.410;2023-07-22T14:28:13;21.40;99.90
68139;DHT22;54940;50.842;4.410;2023-07-22T14:30:39;21.20;99.90
68139;DHT22;54940;50.842;4.410;2023-07-22T14:33:07;21.30;99.90
68139;DHT22;54940;50.842;4.410;2023-07-22T14:35:33;21.30;99.90
68139;DHT22;54940;50.842;4.410;2023-07-22T14:38:00;21.50;99.90
68139;DHT22;54940;50.842;4.410;2023-07-22T14:40:30;21.60;99.90
68139;DHT22;54940;50.842;4.410;2023-07-22T14:42:56;21.70;99.90
68139;DHT22;54940;50.842;4.410;2023-07-22T14:45:24;21.90;99.90
68139;DHT22;54940;50.842;4.410;2023-07-22T14:47:50;22.00;99.90
68139;DHT22;54940;50.842;4.410;2023-07-22T14:50:15;22.10;99.90
68139;DHT22;54940;50.842;4.410;2023-07-22T14:52:41;22.10;99.90
68139;DHT22;54940;50.842;4.410;2023-07-22T14:55:07;22.10;99.90
68139;DHT22;54940;50.842;4.410;2023-07-22T14:57:34;22.10;99.90
68139;DHT22;54940;50.842;4.410;2023-07-22T15:00:00;22.10;99.90
68139;DHT22;54940;50.842;4.410;2023-07-22T15:02:25;22.30;99.90
68139;DHT22;54940;50.842;4.410;2023-07-22T15:04:51;22.30;99.90
68139;DHT22;54940;50.842;4.410;2023-07-22T15:07:16;22.00;99.90
68139;DHT22;54940;50.842;4.410;2023-07-22T15:09:42;22.00;99.90
68139;DHT22;54940;50.842;4.410;2023-07-22T15:12:08;22.10;99.90
68139;DHT22;54940;50.842;4.410;2023-07-22T15:14:35;22.10;99.90
68139;DHT22;54940;50.842;4.410;2023-07-22T15:17:01;22.10;99.90
68139;DHT22;54940;50.842;4.410;2023-07-22T15:19:27;22.10;99.90
68139;DHT22;54940;50.842;4.410;2023-07-22T15:21:52;22.10;99.90
68139;DHT22;54940;50.842;4.410;2023-07-22T15:24:18;22.20;99.90
68139;DHT22;54940;50.842;4.410;2023-07-22T15:26:44;22.20;99.90
68139;DHT22;54940;50.842;4.410;2023-07-22T15:29:10;22.20;99.90
68139;DHT22;54940;50.842;4.410;2023-07-22T15:31:35;22.10;99.90
68139;DHT22;54940;50.842;4.410;2023-07-22T15:34:04;22.00;99.90
68139;DHT22;54940;50.842;4.410;2023-07-22T15:36:30;21.80;99.90
68139;DHT22;54940;50.842;4.410;2023-07-22T15:38:55;21.70;99.90
68139;DHT22;54940;50.842;4.410;2023-07-22T15:41:24;21.60;99.90
68139;DHT22;54940;50.842;4.410;2023-07-22T15:43:50;21.70;99.90
68139;DHT22;54940;50.842;4.410;2023-07-22T15:46:15;21.70;99.90
68139;DHT22;54940;50.842;4.410;2023-07-22T15:48:41;21.60;99.90
68139;DHT22;54940;50.842;4.410;2023-07-22T15:51:07;21.60;99.90
68139;DHT22;54940;50.842;4.410;2023-07-22T15:53:33;21.60;99.90
68139;DHT22;54940;50.842;4.410;2023-07-22T15:55:59;21.70;99.90